createdAt,value
2023-05-14T00:00:42.486Z,16.10
2023-05-14T00:02:04.635Z,16.10
2023-05-14T00:03:25.115Z,16.10
2023-05-14T00:04:45.520Z,16.00
2023-05-14T00:06:08.424Z,16.00
2023-05-14T00:07:28.977Z,16.00
2023-05-14T00:08:49.480Z,16.00
2023-05-14T00:10:10.590Z,15.90
2023-05-14T00:11:30.674Z,16.00
2023-05-14T00:12:51.301Z,16.10
2023-05-14T00:14:11.363Z,16.10
2023-05-14T00:15:34.119Z,16.10
2023-05-14T00:16:55.053Z,16.10
2023-05-14T00:18:16.976Z,16.20
2023-05-14T00:19:37.156Z,16.20
2023-05-14T00:20:57.613Z,16.10
2023-05-14T00:22:18.218Z,16.10
2023-05-14T00:23:38.618Z,16.10
2023-05-14T00:24:59.239Z,16.10
2023-05-14T00:26:19.859Z,16.10
2023-05-14T00:27:40.139Z,16.20
2023-05-14T00:29:00.693Z,16.10
2023-05-14T00:30:20.969Z,16.00
2023-05-14T00:31:41.358Z,16.00
2023-05-14T00:33:01.944Z,16.00
2023-05-14T00:34:23.809Z,16.00
2023-05-14T00:35:43.758Z,16.00
2023-05-14T00:37:06.762Z,16.00
2023-05-14T00:38:27.282Z,15.90
2023-05-14T00:39:47.673Z,15.90
2023-05-14T00:41:08.155Z,15.90
2023-05-14T00:42:28.501Z,15.90
2023-05-14T00:43:48.954Z,15.90
2023-05-14T00:45:09.911Z,15.80
2023-05-14T00:46:30.440Z,15.80
2023-05-14T00:47:51.572Z,15.80
2023-05-14T00:49:11.725Z,15.80
2023-05-14T00:50:33.673Z,15.80
2023-05-14T00:51:53.706Z,15.80
2023-05-14T00:53:14.141Z,15.90
2023-05-14T00:54:34.651Z,15.70
2023-05-14T00:55:55.394Z,15.60
2023-05-14T00:57:15.666Z,15.60
2023-05-14T00:58:36.292Z,15.60
2023-05-14T00:59:56.567Z,15.50
2023-05-14T01:01:16.967Z,15.50
2023-05-14T01:02:37.687Z,15.50
2023-05-14T01:03:58.232Z,15.40
2023-05-14T01:05:18.594Z,15.50
2023-05-14T01:06:41.913Z,15.50
2023-05-14T01:08:04.141Z,15.50
2023-05-14T01:09:25.870Z,15.20
2023-05-14T01:10:49.293Z,15.30
2023-05-14T01:12:13.504Z,15.30
2023-05-14T01:13:35.825Z,15.20
2023-05-14T01:14:57.737Z,15.30
2023-05-14T01:16:19.179Z,15.40
2023-05-14T01:17:40.964Z,15.30
2023-05-14T01:19:01.237Z,15.30
2023-05-14T01:20:22.110Z,15.40
2023-05-14T01:21:44.300Z,15.40
2023-05-14T01:23:04.793Z,15.40
2023-05-14T01:24:25.313Z,15.40
2023-05-14T01:25:45.870Z,15.40
2023-05-14T01:27:07.250Z,15.40
2023-05-14T01:28:29.054Z,15.20
2023-05-14T01:29:50.137Z,15.00
2023-05-14T01:31:11.917Z,15.00
2023-05-14T01:32:32.368Z,15.00
2023-05-14T01:33:52.731Z,15.00
2023-05-14T01:35:13.218Z,15.00
2023-05-14T01:36:33.707Z,15.10
2023-05-14T01:37:56.666Z,15.10
2023-05-14T01:39:17.316Z,15.00
2023-05-14T01:40:37.516Z,14.90
2023-05-14T01:41:58.054Z,14.90
2023-05-14T01:43:18.672Z,14.80
2023-05-14T01:44:39.145Z,14.60
2023-05-14T01:45:59.770Z,14.60
2023-05-14T01:47:19.990Z,14.60
2023-05-14T01:48:40.327Z,14.70
2023-05-14T01:50:00.816Z,14.70
2023-05-14T01:51:21.340Z,14.80
2023-05-14T01:52:41.906Z,14.70
2023-05-14T01:54:03.957Z,14.70
2023-05-14T01:55:24.294Z,14.80
2023-05-14T01:56:44.745Z,14.80
2023-05-14T01:58:05.167Z,14.60
2023-05-14T01:59:25.695Z,14.70
2023-05-14T02:00:46.054Z,14.80
2023-05-14T02:02:06.494Z,14.80
2023-05-14T02:03:27.085Z,14.80
2023-05-14T02:04:47.488Z,14.80
2023-05-14T02:06:07.810Z,14.90
2023-05-14T02:07:28.511Z,14.90
2023-05-14T02:08:48.987Z,15.00
2023-05-14T02:10:11.098Z,15.00
2023-05-14T02:11:31.574Z,15.00
2023-05-14T02:12:52.158Z,14.90
2023-05-14T02:14:12.481Z,14.90
2023-05-14T02:15:32.910Z,14.80
2023-05-14T02:16:53.405Z,14.70
2023-05-14T02:18:14.113Z,14.80
2023-05-14T02:19:37.197Z,14.80
2023-05-14T02:20:57.397Z,14.70
2023-05-14T02:22:17.919Z,14.70
2023-05-14T02:23:42.030Z,14.80
2023-05-14T02:25:02.778Z,14.70
2023-05-14T02:26:25.736Z,14.60
2023-05-14T02:27:46.093Z,14.50
2023-05-14T02:29:06.617Z,14.50
2023-05-14T02:30:27.112Z,14.60
2023-05-14T02:31:47.641Z,14.50
2023-05-14T02:33:08.197Z,14.50
2023-05-14T02:34:28.428Z,14.60
2023-05-14T02:35:48.863Z,14.40
2023-05-14T02:37:09.448Z,14.40
2023-05-14T02:38:30.057Z,14.50
2023-05-14T02:39:50.366Z,14.50
2023-05-14T02:41:10.928Z,14.40
2023-05-14T02:42:32.649Z,14.30
2023-05-14T02:43:52.840Z,14.30
2023-05-14T02:45:13.330Z,14.40
2023-05-14T02:46:36.910Z,14.40
2023-05-14T02:47:57.478Z,14.30
2023-05-14T02:49:17.724Z,14.40
2023-05-14T02:50:38.436Z,14.40
2023-05-14T02:51:59.101Z,14.30
2023-05-14T02:53:19.442Z,14.20
2023-05-14T02:54:39.890Z,14.20
2023-05-14T02:56:00.611Z,14.10
2023-05-14T02:57:20.988Z,14.20
2023-05-14T02:58:42.849Z,14.30
2023-05-14T03:00:02.952Z,14.20
2023-05-14T03:01:23.604Z,14.00
2023-05-14T03:02:45.027Z,14.10
2023-05-14T03:04:09.315Z,14.20
2023-05-14T03:05:29.786Z,14.20
2023-05-14T03:06:50.341Z,14.20
2023-05-14T03:08:10.742Z,14.30
2023-05-14T03:09:31.055Z,14.40
2023-05-14T03:10:51.470Z,14.40
2023-05-14T03:12:11.917Z,14.40
2023-05-14T03:13:32.284Z,14.20
2023-05-14T03:14:53.850Z,14.30
2023-05-14T03:16:14.553Z,14.30
2023-05-14T03:17:36.095Z,14.40
2023-05-14T03:18:56.495Z,14.40
2023-05-14T03:20:17.227Z,14.40
2023-05-14T03:21:37.391Z,14.40
2023-05-14T03:22:57.694Z,14.50
2023-05-14T03:24:18.193Z,14.50
2023-05-14T03:25:38.892Z,14.40
2023-05-14T03:26:59.254Z,14.40
2023-05-14T03:28:19.629Z,14.40
2023-05-14T03:29:40.130Z,14.40
2023-05-14T03:31:01.888Z,14.40
2023-05-14T03:32:22.512Z,14.40
2023-05-14T03:33:42.912Z,14.40
2023-05-14T03:35:03.544Z,14.50
2023-05-14T03:36:23.866Z,14.50
2023-05-14T03:37:44.240Z,14.50
2023-05-14T03:39:04.621Z,14.40
2023-05-14T03:40:24.738Z,14.40
2023-05-14T03:41:44.973Z,14.40
2023-05-14T03:43:08.158Z,14.40
2023-05-14T03:44:28.356Z,14.50
2023-05-14T03:45:48.722Z,14.50
2023-05-14T03:47:10.326Z,14.40
2023-05-14T03:48:30.648Z,14.40
2023-05-14T03:49:50.889Z,14.40
2023-05-14T03:51:11.576Z,14.40
2023-05-14T03:52:32.030Z,14.40
2023-05-14T03:53:52.366Z,14.50
2023-05-14T03:55:12.707Z,14.50
2023-05-14T03:56:33.047Z,14.50
2023-05-14T03:57:53.411Z,14.40
2023-05-14T03:59:13.908Z,14.50
2023-05-14T04:00:34.534Z,14.40
2023-05-14T04:01:54.871Z,14.40
2023-05-14T04:03:16.724Z,14.40
2023-05-14T04:04:36.920Z,14.20
2023-05-14T04:05:57.295Z,14.30
2023-05-14T04:07:17.901Z,14.20
2023-05-14T04:08:38.288Z,14.30
2023-05-14T04:09:58.631Z,14.20
2023-05-14T04:11:19.055Z,14.20
2023-05-14T04:12:39.405Z,14.20
2023-05-14T04:14:00.030Z,14.10
2023-05-14T04:15:20.506Z,14.00
2023-05-14T04:16:40.936Z,14.10
2023-05-14T04:18:01.287Z,14.00
2023-05-14T04:19:23.001Z,14.00
2023-05-14T04:20:43.352Z,14.00
2023-05-14T04:22:03.765Z,14.00
2023-05-14T04:23:23.843Z,13.90
2023-05-14T04:24:44.280Z,14.00
2023-05-14T04:26:05.004Z,14.00
2023-05-14T04:27:25.242Z,14.10
2023-05-14T04:28:45.714Z,14.10
2023-05-14T04:30:06.821Z,14.20
2023-05-14T04:31:27.138Z,14.10
2023-05-14T04:32:47.995Z,14.10
2023-05-14T04:34:08.375Z,14.00
2023-05-14T04:35:30.250Z,13.90
2023-05-14T04:36:50.578Z,13.80
2023-05-14T04:38:10.881Z,13.90
2023-05-14T04:39:31.242Z,14.00
2023-05-14T04:40:51.802Z,14.10
2023-05-14T04:42:12.218Z,14.00
2023-05-14T04:43:32.568Z,14.00
2023-05-14T04:44:52.919Z,14.00
2023-05-14T04:46:13.471Z,14.10
2023-05-14T04:47:33.849Z,14.00
2023-05-14T04:48:53.971Z,13.90
2023-05-14T04:50:14.420Z,13.90
2023-05-14T04:51:36.214Z,13.90
2023-05-14T04:52:56.585Z,13.90
2023-05-14T04:54:17.019Z,13.90
2023-05-14T04:55:37.316Z,13.90
2023-05-14T04:56:57.644Z,14.00
2023-05-14T04:58:18.090Z,13.80
2023-05-14T04:59:38.694Z,13.90
2023-05-14T05:00:59.306Z,13.80
2023-05-14T05:02:19.516Z,13.80
2023-05-14T05:03:39.951Z,13.80
2023-05-14T05:05:00.318Z,13.80
2023-05-14T05:06:20.557Z,13.90
2023-05-14T05:07:42.275Z,13.90
2023-05-14T05:09:02.706Z,13.80
2023-05-14T05:10:23.824Z,13.90
2023-05-14T05:11:44.124Z,14.00
2023-05-14T05:13:06.516Z,14.00
2023-05-14T05:14:26.836Z,14.00
2023-05-14T05:15:47.362Z,14.00
2023-05-14T05:17:07.831Z,14.10
2023-05-14T05:18:28.491Z,14.10
2023-05-14T05:19:48.806Z,14.10
2023-05-14T05:21:09.167Z,14.10
2023-05-14T05:22:29.418Z,14.10
2023-05-14T05:23:51.102Z,14.10
2023-05-14T05:25:11.608Z,14.10
2023-05-14T05:26:32.128Z,14.10
2023-05-14T05:27:52.321Z,14.10
2023-05-14T05:29:12.609Z,14.20
2023-05-14T05:30:33.104Z,14.10
2023-05-14T05:31:53.797Z,14.10
2023-05-14T05:33:14.126Z,14.20
2023-05-14T05:34:34.614Z,14.10
2023-05-14T05:35:55.194Z,14.20
2023-05-14T05:37:18.132Z,14.10
2023-05-14T05:38:38.728Z,14.10
2023-05-14T05:40:00.620Z,14.10
2023-05-14T05:41:20.920Z,14.10
2023-05-14T05:42:41.442Z,14.10
2023-05-14T05:44:01.730Z,14.10
2023-05-14T05:45:22.191Z,14.10
2023-05-14T05:46:42.647Z,14.10
2023-05-14T05:48:03.032Z,14.10
2023-05-14T05:49:23.315Z,14.10
2023-05-14T05:50:43.713Z,14.20
2023-05-14T05:52:05.456Z,14.10
2023-05-14T05:53:28.529Z,14.10
2023-05-14T05:54:48.976Z,14.00
2023-05-14T05:56:10.716Z,14.00
2023-05-14T05:57:31.074Z,14.00
2023-05-14T05:58:51.731Z,14.00
2023-05-14T06:00:12.272Z,14.00
2023-05-14T06:01:32.656Z,14.00
2023-05-14T06:02:53.321Z,14.00
2023-05-14T06:04:13.847Z,14.10
2023-05-14T06:05:34.490Z,14.20
2023-05-14T06:06:55.085Z,14.10
2023-05-14T06:08:15.482Z,14.20
2023-05-14T06:09:35.929Z,14.20
2023-05-14T06:10:56.396Z,14.20
2023-05-14T06:12:18.389Z,14.10
2023-05-14T06:13:39.262Z,14.20
2023-05-14T06:14:59.654Z,14.20
2023-05-14T06:16:20.138Z,14.20
2023-05-14T06:17:40.459Z,14.30
2023-05-14T06:19:01.089Z,14.40
2023-05-14T06:20:21.703Z,14.40
2023-05-14T06:21:42.781Z,14.40
2023-05-14T06:23:03.268Z,14.40
2023-05-14T06:24:23.760Z,14.40
2023-05-14T06:25:44.177Z,14.30
2023-05-14T06:27:04.891Z,14.40
2023-05-14T06:28:26.494Z,14.30
2023-05-14T06:29:46.589Z,14.40
2023-05-14T06:31:07.030Z,14.40
2023-05-14T06:32:30.431Z,14.40
2023-05-14T06:33:50.720Z,14.50
2023-05-14T06:35:11.130Z,14.50
2023-05-14T06:36:31.570Z,14.40
2023-05-14T06:37:52.136Z,14.40
2023-05-14T06:39:12.486Z,14.50
2023-05-14T06:40:32.714Z,14.60
2023-05-14T06:41:53.021Z,14.70
2023-05-14T06:43:13.373Z,14.70
2023-05-14T06:44:35.478Z,14.70
2023-05-14T06:45:55.775Z,14.70
2023-05-14T06:47:16.229Z,14.70
2023-05-14T06:48:36.675Z,14.60
2023-05-14T06:49:57.081Z,14.70
2023-05-14T06:51:17.446Z,14.80
2023-05-14T06:52:38.292Z,14.80
2023-05-14T06:53:58.475Z,14.80
2023-05-14T06:55:19.044Z,14.90
2023-05-14T06:56:39.330Z,14.80
2023-05-14T06:57:59.704Z,14.90
2023-05-14T06:59:20.104Z,14.90
2023-05-14T07:00:41.940Z,15.00
2023-05-14T07:02:02.486Z,15.00
2023-05-14T07:03:23.079Z,15.00
2023-05-14T07:04:43.643Z,15.10
2023-05-14T07:06:05.263Z,15.00
2023-05-14T07:07:25.983Z,15.00
2023-05-14T07:08:46.425Z,15.00
2023-05-14T07:10:07.741Z,15.00
2023-05-14T07:11:28.150Z,15.10
2023-05-14T07:12:48.572Z,15.10
2023-05-14T07:14:08.888Z,15.00
2023-05-14T07:15:29.174Z,15.10
2023-05-14T07:16:51.003Z,15.10
2023-05-14T07:18:11.568Z,15.20
2023-05-14T07:19:31.833Z,15.20
2023-05-14T07:20:52.213Z,15.30
2023-05-14T07:22:12.606Z,15.40
2023-05-14T07:23:32.974Z,15.40
2023-05-14T07:24:53.391Z,15.40
2023-05-14T07:26:14.849Z,15.60
2023-05-14T07:27:41.880Z,15.60
2023-05-14T07:28:51.690Z,15.70
2023-05-14T07:30:12.746Z,15.70
2023-05-14T07:31:33.300Z,15.70
2023-05-14T07:32:55.121Z,15.70
2023-05-14T07:34:15.467Z,15.70
2023-05-14T07:35:35.880Z,15.70
2023-05-14T07:36:56.426Z,15.80
2023-05-14T07:38:17.037Z,15.80
2023-05-14T07:39:37.174Z,15.80
2023-05-14T07:40:57.802Z,15.80
2023-05-14T07:42:31.742Z,15.90
2023-05-14T07:43:56.118Z,15.80
2023-05-14T07:45:16.922Z,15.80
2023-05-14T07:46:37.437Z,15.90
2023-05-14T07:47:59.544Z,15.90
2023-05-14T07:49:19.844Z,15.90
2023-05-14T07:50:40.214Z,15.90
2023-05-14T07:52:01.066Z,16.00
2023-05-14T07:53:21.620Z,16.00
2023-05-14T07:54:42.338Z,16.10
2023-05-14T07:56:02.544Z,16.10
2023-05-14T07:57:23.068Z,16.00
2023-05-14T07:58:43.694Z,16.00
2023-05-14T08:00:04.248Z,16.10
2023-05-14T08:01:24.452Z,16.10
2023-05-14T08:02:45.096Z,16.00
2023-05-14T08:04:07.458Z,16.00
2023-05-14T08:05:28.047Z,16.10
2023-05-14T08:06:48.482Z,16.10
2023-05-14T08:08:08.827Z,16.20
2023-05-14T08:09:29.572Z,16.10
2023-05-14T08:10:49.861Z,16.10
2023-05-14T08:12:10.353Z,16.10
2023-05-14T08:13:30.910Z,16.00
2023-05-14T08:14:51.484Z,16.00
2023-05-14T08:16:12.113Z,16.10
2023-05-14T08:17:32.672Z,16.10
2023-05-14T08:18:53.225Z,16.10
2023-05-14T08:20:14.910Z,16.20
2023-05-14T08:21:35.620Z,16.20
2023-05-14T08:22:56.356Z,16.30
2023-05-14T08:24:16.705Z,16.40
2023-05-14T08:25:37.279Z,16.40
2023-05-14T08:26:57.911Z,16.40
2023-05-14T08:28:18.599Z,16.50
2023-05-14T08:29:39.239Z,16.60
2023-05-14T08:30:59.753Z,16.60
2023-05-14T08:32:23.687Z,16.70
2023-05-14T08:33:44.779Z,16.70
2023-05-14T08:35:05.711Z,16.80
2023-05-14T08:36:27.642Z,16.80
2023-05-14T08:37:48.002Z,16.90
2023-05-14T08:39:08.680Z,16.90
2023-05-14T08:40:29.238Z,16.90
2023-05-14T08:41:49.820Z,16.90
2023-05-14T08:43:10.289Z,16.90
2023-05-14T08:44:31.654Z,17.00
2023-05-14T08:45:52.264Z,17.10
2023-05-14T08:47:13.070Z,17.10
2023-05-14T08:48:33.880Z,17.10
2023-05-14T08:49:55.281Z,17.00
2023-05-14T08:51:15.759Z,17.10
2023-05-14T08:52:37.410Z,17.10
2023-05-14T08:53:58.112Z,17.20
2023-05-14T08:55:18.334Z,17.30
2023-05-14T08:56:38.960Z,17.30
2023-05-14T08:57:59.522Z,17.30
2023-05-14T08:59:20.072Z,17.40
2023-05-14T09:00:40.224Z,17.40
2023-05-14T09:02:01.954Z,17.40
2023-05-14T09:03:22.901Z,17.50
2023-05-14T09:04:43.444Z,17.50
2023-05-14T09:06:04.129Z,17.50
2023-05-14T09:07:24.261Z,17.60
2023-05-14T09:08:45.965Z,17.70
2023-05-14T09:10:06.969Z,17.80
2023-05-14T09:11:27.476Z,17.90
2023-05-14T09:12:48.019Z,17.90
2023-05-14T09:14:08.969Z,17.90
2023-05-14T09:15:29.495Z,17.90
2023-05-14T09:16:50.185Z,17.90
2023-05-14T09:18:10.444Z,17.90
2023-05-14T09:19:30.915Z,17.80
2023-05-14T09:20:51.483Z,17.90
2023-05-14T09:22:12.934Z,17.90
2023-05-14T09:23:33.006Z,18.00
2023-05-14T09:25:03.446Z,18.10
2023-05-14T09:26:23.689Z,18.00
2023-05-14T09:27:45.467Z,18.10
2023-05-14T09:29:05.489Z,18.20
2023-05-14T09:30:26.391Z,18.20
2023-05-14T09:31:47.766Z,18.20
2023-05-14T09:33:08.265Z,18.30
2023-05-14T09:34:29.077Z,18.30
2023-05-14T09:35:49.419Z,18.30
2023-05-14T09:37:10.023Z,18.20
2023-05-14T09:38:30.407Z,18.10
2023-05-14T09:39:51.184Z,18.10
2023-05-14T09:41:13.000Z,18.10
2023-05-14T09:42:33.457Z,18.10
2023-05-14T09:43:53.680Z,18.10
2023-05-14T09:45:14.076Z,18.10
2023-05-14T09:46:34.639Z,18.10
2023-05-14T09:47:55.341Z,18.20
2023-05-14T09:49:16.282Z,18.10
2023-05-14T09:50:41.659Z,18.10
2023-05-14T09:52:02.197Z,18.10
2023-05-14T09:53:22.851Z,18.10
2023-05-14T09:54:43.250Z,18.10
2023-05-14T09:56:03.973Z,18.20
2023-05-14T09:57:25.429Z,18.20
2023-05-14T09:58:45.790Z,18.20
2023-05-14T10:00:07.024Z,18.30
2023-05-14T10:01:27.946Z,18.30
2023-05-14T10:02:48.309Z,18.30
2023-05-14T10:04:08.776Z,18.30
2023-05-14T10:05:29.143Z,18.40
2023-05-14T10:06:50.160Z,18.30
2023-05-14T10:08:12.833Z,18.30
2023-05-14T10:09:33.007Z,18.40
2023-05-14T10:10:54.153Z,18.40
2023-05-14T10:12:14.932Z,18.40
2023-05-14T10:13:37.998Z,18.40
2023-05-14T10:14:58.374Z,18.40
2023-05-14T10:16:20.036Z,18.60
2023-05-14T10:17:41.196Z,18.60
2023-05-14T10:19:03.671Z,18.60
2023-05-14T10:20:24.683Z,18.60
2023-05-14T10:21:45.802Z,18.60
2023-05-14T10:23:06.683Z,18.60
2023-05-14T10:24:27.410Z,18.70
2023-05-14T10:25:48.029Z,18.70
2023-05-14T10:27:08.313Z,18.80
2023-05-14T10:28:28.909Z,18.90
2023-05-14T10:29:52.685Z,18.90
2023-05-14T10:31:13.795Z,18.80
2023-05-14T10:32:34.182Z,19.00
2023-05-14T10:33:54.996Z,19.00
2023-05-14T10:35:16.029Z,19.00
2023-05-14T10:36:36.510Z,19.00
2023-05-14T10:37:57.297Z,19.10
2023-05-14T10:39:18.574Z,19.20
2023-05-14T10:40:39.366Z,19.20
2023-05-14T10:41:59.647Z,19.10
2023-05-14T10:43:20.025Z,19.00
2023-05-14T10:44:58.564Z,19.00
2023-05-14T10:46:20.411Z,19.10
2023-05-14T10:47:42.078Z,19.20
2023-05-14T10:49:02.431Z,19.20
2023-05-14T10:50:23.139Z,19.20
2023-05-14T10:51:44.109Z,19.30
2023-05-14T10:53:04.539Z,19.40
2023-05-14T10:54:25.062Z,19.50
2023-05-14T10:55:45.842Z,19.50
2023-05-14T10:57:09.662Z,19.40
2023-05-14T10:58:31.009Z,19.30
2023-05-14T10:59:52.451Z,19.30
2023-05-14T11:01:13.220Z,19.30
2023-05-14T11:02:35.694Z,19.40
2023-05-14T11:03:58.068Z,19.40
2023-05-14T11:05:18.333Z,19.40
2023-05-14T11:06:39.012Z,19.50
2023-05-14T11:07:59.378Z,19.50
2023-05-14T11:09:19.603Z,19.60
2023-05-14T11:10:40.216Z,19.70
2023-05-14T11:12:01.028Z,19.70
2023-05-14T11:13:21.771Z,19.70
2023-05-14T11:14:42.132Z,19.90
2023-05-14T11:16:15.094Z,19.80
2023-05-14T11:17:43.514Z,19.90
2023-05-14T11:19:04.758Z,19.90
2023-05-14T11:20:25.404Z,19.80
2023-05-14T11:21:46.134Z,19.90
2023-05-14T11:23:07.256Z,19.80
2023-05-14T11:24:27.755Z,19.70
2023-05-14T11:25:48.481Z,19.70
2023-05-14T11:27:08.845Z,19.70
2023-05-14T11:28:29.039Z,19.80
2023-05-14T11:29:49.922Z,19.90
2023-05-14T11:31:10.169Z,19.90
2023-05-14T11:32:31.347Z,19.90
2023-05-14T11:33:53.473Z,20.00
2023-05-14T11:35:14.191Z,20.20
2023-05-14T11:36:36.392Z,20.40
2023-05-14T11:37:56.800Z,20.60
2023-05-14T11:39:20.411Z,20.70
2023-05-14T11:40:40.983Z,20.80
2023-05-14T11:42:03.340Z,21.00
2023-05-14T11:43:23.802Z,21.20
2023-05-14T11:44:44.391Z,21.20
2023-05-14T11:46:15.333Z,21.10
2023-05-14T11:47:36.657Z,21.20
2023-05-14T11:48:59.671Z,21.30
2023-05-14T11:50:19.896Z,21.30
2023-05-14T11:51:41.039Z,21.50
2023-05-14T11:53:01.964Z,21.60
2023-05-14T11:54:28.658Z,21.60
2023-05-14T11:55:54.589Z,21.60
2023-05-14T11:57:18.635Z,21.60
2023-05-14T11:58:42.054Z,21.70
2023-05-14T12:00:03.625Z,21.70
2023-05-14T12:01:24.690Z,21.70
2023-05-14T12:02:50.845Z,21.70
2023-05-14T12:04:22.981Z,21.60
2023-05-14T12:05:54.965Z,21.80
2023-05-14T12:07:16.668Z,21.80
2023-05-14T12:08:40.510Z,21.70
2023-05-14T12:10:04.940Z,21.60
2023-05-14T12:11:25.451Z,21.50
2023-05-14T12:12:46.598Z,21.60
2023-05-14T12:14:15.511Z,21.60
2023-05-14T12:15:40.610Z,21.60
2023-05-14T12:17:01.965Z,21.60
2023-05-14T12:18:25.477Z,21.60
2023-05-14T12:19:50.978Z,21.50
2023-05-14T12:21:24.307Z,21.50
2023-05-14T12:22:44.861Z,21.50
2023-05-14T12:24:10.147Z,21.60
2023-05-14T12:25:31.005Z,21.70
2023-05-14T12:26:51.462Z,21.80
2023-05-14T12:28:16.508Z,21.80
2023-05-14T12:29:39.121Z,21.90
2023-05-14T12:31:00.000Z,21.90
2023-05-14T12:32:25.098Z,22.00
2023-05-14T12:33:46.816Z,22.00
2023-05-14T12:35:14.370Z,21.80
2023-05-14T12:36:38.678Z,21.80
2023-05-14T12:37:59.236Z,21.80
2023-05-14T12:39:19.753Z,21.70
2023-05-14T12:40:40.084Z,21.70
2023-05-14T12:42:00.753Z,21.70
2023-05-14T12:43:21.098Z,21.70
2023-05-14T12:44:41.670Z,21.70
2023-05-14T12:46:02.241Z,21.70
2023-05-14T12:47:22.843Z,21.90
2023-05-14T12:48:43.205Z,21.90
2023-05-14T12:50:03.759Z,22.00
2023-05-14T12:51:25.414Z,22.00
2023-05-14T12:52:45.889Z,22.00
2023-05-14T12:54:06.459Z,21.90
2023-05-14T12:55:26.946Z,22.00
2023-05-14T12:56:47.427Z,22.10
2023-05-14T12:58:07.817Z,22.00
2023-05-14T12:59:28.262Z,21.90
2023-05-14T13:00:48.782Z,22.00
2023-05-14T13:02:09.267Z,22.10
2023-05-14T13:03:29.913Z,21.80
2023-05-14T13:04:50.326Z,21.70
2023-05-14T13:06:10.775Z,21.80
2023-05-14T13:07:32.665Z,21.70
2023-05-14T13:08:52.999Z,21.60
2023-05-14T13:10:13.419Z,21.90
2023-05-14T13:11:34.074Z,22.00
2023-05-14T13:12:54.515Z,22.00
2023-05-14T13:14:15.029Z,21.80
2023-05-14T13:15:35.566Z,21.90
2023-05-14T13:16:56.420Z,21.90
2023-05-14T13:18:17.424Z,22.00
2023-05-14T13:19:38.001Z,21.90
2023-05-14T13:20:58.449Z,22.10
2023-05-14T13:22:18.879Z,22.00
2023-05-14T13:23:40.844Z,21.80
2023-05-14T13:25:01.253Z,21.80
2023-05-14T13:26:21.682Z,21.70
2023-05-14T13:27:42.193Z,21.60
2023-05-14T13:29:02.683Z,21.60
2023-05-14T13:30:23.215Z,21.60
2023-05-14T13:31:43.632Z,21.40
2023-05-14T13:33:04.335Z,21.40
2023-05-14T13:34:24.559Z,21.40
2023-05-14T13:35:45.153Z,21.40
2023-05-14T13:37:06.786Z,21.40
2023-05-14T13:38:26.994Z,21.30
2023-05-14T13:39:50.042Z,21.30
2023-05-14T13:41:11.566Z,21.40
2023-05-14T13:42:32.158Z,21.30
2023-05-14T13:43:52.620Z,21.30
2023-05-14T13:45:13.099Z,21.30
2023-05-14T13:46:33.604Z,21.20
2023-05-14T13:47:54.019Z,21.10
2023-05-14T13:49:14.498Z,21.10
2023-05-14T13:50:35.159Z,21.10
2023-05-14T13:51:55.814Z,21.10
2023-05-14T13:53:16.301Z,21.00
2023-05-14T13:54:36.847Z,20.90
2023-05-14T13:55:58.690Z,20.80
2023-05-14T13:57:19.138Z,20.80
2023-05-14T13:58:39.651Z,20.70
2023-05-14T14:00:00.093Z,20.70
2023-05-14T14:01:20.719Z,20.60
2023-05-14T14:02:41.287Z,20.60
2023-05-14T14:04:01.788Z,20.50
2023-05-14T14:05:22.381Z,20.50
2023-05-14T14:06:43.249Z,20.70
2023-05-14T14:08:13.178Z,20.70
2023-05-14T14:09:43.111Z,20.70
2023-05-14T14:11:05.330Z,20.60
2023-05-14T14:12:25.755Z,20.70
2023-05-14T14:13:46.866Z,20.60
2023-05-14T14:15:07.864Z,20.60
2023-05-14T14:16:28.277Z,20.60
2023-05-14T14:17:48.861Z,20.60
2023-05-14T14:19:09.209Z,20.50
2023-05-14T14:20:29.678Z,20.40
2023-05-14T14:23:11.517Z,20.20
2023-05-14T14:24:32.274Z,20.10
2023-05-14T14:25:52.694Z,20.00
2023-05-14T14:27:14.280Z,20.00
2023-05-14T14:28:34.826Z,20.10
2023-05-14T14:29:55.342Z,20.00
2023-05-14T14:31:16.059Z,20.00
2023-05-14T14:32:36.686Z,20.00
2023-05-14T14:33:57.242Z,20.10
2023-05-14T14:35:18.531Z,20.00
2023-05-14T14:36:38.779Z,20.10
2023-05-14T14:37:59.348Z,20.10
2023-05-14T14:39:19.756Z,20.10
2023-05-14T14:40:40.427Z,20.00
2023-05-14T14:42:00.773Z,20.00
2023-05-14T14:43:22.465Z,20.00
2023-05-14T14:44:42.958Z,20.00
2023-05-14T14:46:03.762Z,20.10
2023-05-14T14:47:24.500Z,20.10
2023-05-14T14:48:44.629Z,20.10
2023-05-14T14:50:05.782Z,20.30
2023-05-14T14:51:25.879Z,20.20
2023-05-14T14:52:46.288Z,20.10
2023-05-14T14:54:06.794Z,20.00
2023-05-14T14:55:27.772Z,19.90
2023-05-14T14:56:48.162Z,19.90
2023-05-14T14:58:09.339Z,19.80
2023-05-14T14:59:30.938Z,19.60
2023-05-14T15:00:51.907Z,19.80
2023-05-14T15:02:12.814Z,19.90
2023-05-14T15:03:33.300Z,20.00
2023-05-14T15:04:53.960Z,20.00
2023-05-14T15:06:14.603Z,20.00
2023-05-14T15:07:34.923Z,20.00
2023-05-14T15:08:55.592Z,19.90
2023-05-14T15:10:16.142Z,19.90
2023-05-14T15:11:37.560Z,19.80
2023-05-14T15:12:58.162Z,19.80
2023-05-14T15:14:18.306Z,19.70
2023-05-14T15:15:39.951Z,19.80
2023-05-14T15:17:00.443Z,19.90
2023-05-14T15:18:21.975Z,19.70
2023-05-14T15:19:42.542Z,19.70
2023-05-14T15:21:02.887Z,19.90
2023-05-14T15:22:26.537Z,19.80
2023-05-14T15:23:48.678Z,20.00
2023-05-14T15:25:09.869Z,20.00
2023-05-14T15:26:30.606Z,20.00
2023-05-14T15:27:51.257Z,20.00
2023-05-14T15:29:12.193Z,20.00
2023-05-14T15:30:32.454Z,20.10
2023-05-14T15:31:54.303Z,20.10
2023-05-14T15:33:17.927Z,20.20
2023-05-14T15:34:38.335Z,20.20
2023-05-14T15:35:58.782Z,20.30
2023-05-14T15:37:19.229Z,20.60
2023-05-14T15:38:39.810Z,20.80
2023-05-14T15:40:00.435Z,20.80
2023-05-14T15:41:20.841Z,20.90
2023-05-14T15:42:42.308Z,20.90
2023-05-14T15:44:02.721Z,20.80
2023-05-14T15:45:23.338Z,20.80
2023-05-14T15:46:43.577Z,20.70
2023-05-14T15:48:05.840Z,20.50
2023-05-14T15:49:26.781Z,20.50
2023-05-14T15:50:49.467Z,20.30
2023-05-14T15:52:14.429Z,20.30
2023-05-14T15:53:34.866Z,20.30
2023-05-14T15:54:55.164Z,20.30
2023-05-14T15:56:15.528Z,20.20
2023-05-14T15:57:35.967Z,20.30
2023-05-14T15:58:56.483Z,20.40
2023-05-14T16:00:17.572Z,20.30
2023-05-14T16:01:37.683Z,20.30
2023-05-14T16:02:58.261Z,20.30
2023-05-14T16:04:20.038Z,20.30
2023-05-14T16:05:40.520Z,20.30
2023-05-14T16:07:01.852Z,20.10
2023-05-14T16:08:22.634Z,20.00
2023-05-14T16:09:42.939Z,20.00
2023-05-14T16:11:03.356Z,19.90
2023-05-14T16:12:23.852Z,19.90
2023-05-14T16:13:44.356Z,20.00
2023-05-14T16:15:06.448Z,19.80
2023-05-14T16:16:27.329Z,19.70
2023-05-14T16:17:47.756Z,19.60
2023-05-14T16:19:08.644Z,19.60
2023-05-14T16:20:30.531Z,19.60
2023-05-14T16:21:50.950Z,19.60
2023-05-14T16:23:11.660Z,19.60
2023-05-14T16:24:32.212Z,19.50
2023-05-14T16:25:52.459Z,19.50
2023-05-14T16:27:13.460Z,19.40
2023-05-14T16:28:34.067Z,19.50
2023-05-14T16:29:54.434Z,19.50
2023-05-14T16:31:15.612Z,19.70
2023-05-14T16:32:36.480Z,19.70
2023-05-14T16:33:56.848Z,19.70
2023-05-14T16:35:17.363Z,19.70
2023-05-14T16:36:39.118Z,19.80
2023-05-14T16:37:59.463Z,19.90
2023-05-14T16:39:19.893Z,20.00
2023-05-14T16:40:40.268Z,19.90
2023-05-14T16:42:01.179Z,19.90
2023-05-14T16:43:21.903Z,19.90
2023-05-14T16:44:42.593Z,19.60
2023-05-14T16:46:03.167Z,19.40
2023-05-14T16:47:23.579Z,19.30
2023-05-14T16:48:45.134Z,19.40
2023-05-14T16:50:06.100Z,19.40
2023-05-14T16:51:26.453Z,19.30
2023-05-14T16:52:48.115Z,19.30
2023-05-14T16:54:08.676Z,19.30
2023-05-14T16:55:29.293Z,19.20
2023-05-14T16:56:49.796Z,19.20
2023-05-14T16:58:10.235Z,18.90
2023-05-14T16:59:30.808Z,18.80
2023-05-14T17:00:51.050Z,18.80
2023-05-14T17:02:11.924Z,18.80
2023-05-14T17:03:32.465Z,18.80
2023-05-14T17:04:53.041Z,18.90
2023-05-14T17:06:13.481Z,18.80
2023-05-14T17:07:34.028Z,18.70
2023-05-14T17:08:55.903Z,18.70
2023-05-14T17:10:16.365Z,18.70
2023-05-14T17:11:36.852Z,18.60
2023-05-14T17:12:57.270Z,18.50
2023-05-14T17:14:17.777Z,18.40
2023-05-14T17:15:38.427Z,18.30
2023-05-14T17:16:58.879Z,18.30
2023-05-14T17:18:19.388Z,18.20
2023-05-14T17:19:39.859Z,18.10
2023-05-14T17:21:00.538Z,18.10
2023-05-14T17:22:21.063Z,18.10
2023-05-14T17:23:41.680Z,18.00
2023-05-14T17:25:03.671Z,17.90